sensor_id;sensor_type;location;lat;lon;timestamp;temperature;humidity
38784;DHT22;24531;45.502;12.238;2023-03-07T00:00:07;11.40;94.90
38784;DHT22;24531;45.502;12.238;2023-03-07T00:02:33;11.30;95.00
38784;DHT22;24531;45.502;12.238;2023-03-07T00:04:58;11.40;95.00
38784;DHT22;24531;45.502;12.238;2023-03-07T00:07:24;11.40;94.90
38784;DHT22;24531;45.502;12.238;2023-03-07T00:09:50;11.40;94.90
38784;DHT22;24531;45.502;12.238;2023-03-07T00:12:15;11.30;94.80
38784;DHT22;24531;45.502;12.238;2023-03-07T00:14:41;11.40;94.90
38784;DHT22;24531;45.502;12.238;2023-03-07T00:17:06;11.40;94.80
38784;DHT22;24531;45.502;12.238;2023-03-07T00:19:32;11.30;94.70
38784;DHT22;24531;45.502;12.238;2023-03-07T00:21:57;11.40;94.70
38784;DHT22;24531;45.502;12.238;2023-03-07T00:24:23;11.30;94.70
38784;DHT22;24531;45.502;12.238;2023-03-07T00:26:49;11.30;94.70
38784;DHT22;24531;45.502;12.238;2023-03-07T00:29:14;11.30;95.00
38784;DHT22;24531;45.502;12.238;2023-03-07T00:31:40;11.20;94.70
38784;DHT22;24531;45.502;12.238;2023-03-07T00:34:05;11.20;94.70
38784;DHT22;24531;45.502;12.238;2023-03-07T00:36:31;11.20;94.80
38784;DHT22;24531;45.502;12.238;2023-03-07T00:38:57;11.20;94.70
38784;DHT22;24531;45.502;12.238;2023-03-07T00:41:25;11.20;94.70
38784;DHT22;24531;45.502;12.238;2023-03-07T00:43:51;11.20;94.70
38784;DHT22;24531;45.502;12.238;2023-03-07T00:46:19;11.10;94.70
38784;DHT22;24531;45.502;12.238;2023-03-07T00:48:46;11.20;94.70
38784;DHT22;24531;45.502;12.238;2023-03-07T00:51:14;11.20;94.60
38784;DHT22;24531;45.502;12.238;2023-03-07T00:53:40;11.10;94.70
38784;DHT22;24531;45.502;12.238;2023-03-07T00:56:11;11.10;94.60
38784;DHT22;24531;45.502;12.238;2023-03-07T00:58:37;11.20;94.70
38784;DHT22;24531;45.502;12.238;2023-03-07T01:01:05;11.10;94.60
38784;DHT22;24531;45.502;12.238;2023-03-07T01:03:31;11.10;94.70
38784;DHT22;24531;45.502;12.238;2023-03-07T01:06:04;11.00;94.70
38784;DHT22;24531;45.502;12.238;2023-03-07T01:08:30;11.10;94.80
38784;DHT22;24531;45.502;12.238;2023-03-07T01:11:03;11.10;94.80
38784;DHT22;24531;45.502;12.238;2023-03-07T01:13:30;11.10;94.80
38784;DHT22;24531;45.502;12.238;2023-03-07T01:16:06;11.10;94.70
38784;DHT22;24531;45.502;12.238;2023-03-07T01:18:32;11.10;94.80
38784;DHT22;24531;45.502;12.238;2023-03-07T01:20:57;11.10;94.70
38784;DHT22;24531;45.502;12.238;2023-03-07T01:23:23;11.00;94.70
38784;DHT22;24531;45.502;12.238;2023-03-07T01:25:48;11.00;94.80
38784;DHT22;24531;45.502;12.238;2023-03-07T01:28:14;11.00;94.80
38784;DHT22;24531;45.502;12.238;2023-03-07T01:30:40;11.00;94.80
38784;DHT22;24531;45.502;12.238;2023-03-07T01:33:06;11.00;94.70
38784;DHT22;24531;45.502;12.238;2023-03-07T01:35:38;10.90;94.70
38784;DHT22;24531;45.502;12.238;2023-03-07T01:38:04;10.90;95.20
38784;DHT22;24531;45.502;12.238;2023-03-07T01:40:30;10.90;94.80
38784;DHT22;24531;45.502;12.238;2023-03-07T01:43:29;10.90;94.90
38784;DHT22;24531;45.502;12.238;2023-03-07T01:48:39;10.90;94.80
38784;DHT22;24531;45.502;12.238;2023-03-07T01:51:04;10.90;94.80
38784;DHT22;24531;45.502;12.238;2023-03-07T01:53:30;10.90;94.80
38784;DHT22;24531;45.502;12.238;2023-03-07T01:55:56;10.80;94.70
38784;DHT22;24531;45.502;12.238;2023-03-07T01:58:22;10.70;94.80
38784;DHT22;24531;45.502;12.238;2023-03-07T02:00:49;10.70;94.90
38784;DHT22;24531;45.502;12.238;2023-03-07T02:03:45;10.80;94.90
38784;DHT22;24531;45.502;12.238;2023-03-07T02:06:12;10.70;94.90
38784;DHT22;24531;45.502;12.238;2023-03-07T02:08:39;10.70;94.80
38784;DHT22;24531;45.502;12.238;2023-03-07T02:11:06;10.70;94.80
38784;DHT22;24531;45.502;12.238;2023-03-07T02:13:32;10.60;94.80
38784;DHT22;24531;45.502;12.238;2023-03-07T02:16:02;10.60;94.80
38784;DHT22;24531;45.502;12.238;2023-03-07T02:18:31;10.60;94.90
38784;DHT22;24531;45.502;12.238;2023-03-07T02:23:58;10.60;94.80
38784;DHT22;24531;45.502;12.238;2023-03-07T02:29:00;10.60;94.80
38784;DHT22;24531;45.502;12.238;2023-03-07T02:31:27;10.60;94.80
38784;DHT22;24531;45.502;12.238;2023-03-07T02:33:52;10.60;94.80
38784;DHT22;24531;45.502;12.238;2023-03-07T02:36:22;10.50;94.70
38784;DHT22;24531;45.502;12.238;2023-03-07T02:38:51;10.50;94.90
38784;DHT22;24531;45.502;12.238;2023-03-07T02:41:21;10.40;94.90
38784;DHT22;24531;45.502;12.238;2023-03-07T02:43:48;10.50;95.00
38784;DHT22;24531;45.502;12.238;2023-03-07T02:46:14;10.50;94.90
38784;DHT22;24531;45.502;12.238;2023-03-07T02:48:39;10.50;94.90
38784;DHT22;24531;45.502;12.238;2023-03-07T02:51:05;10.50;95.00
38784;DHT22;24531;45.502;12.238;2023-03-07T02:53:31;10.50;95.10
38784;DHT22;24531;45.502;12.238;2023-03-07T02:55:56;10.50;95.30
38784;DHT22;24531;45.502;12.238;2023-03-07T02:58:22;10.50;95.10
38784;DHT22;24531;45.502;12.238;2023-03-07T03:00:48;10.50;94.90
38784;DHT22;24531;45.502;12.238;2023-03-07T03:03:13;10.50;94.90
38784;DHT22;24531;45.502;12.238;2023-03-07T03:05:39;10.50;94.90
38784;DHT22;24531;45.502;12.238;2023-03-07T03:08:05;10.40;94.90
38784;DHT22;24531;45.502;12.238;2023-03-07T03:10:30;10.40;95.00
38784;DHT22;24531;45.502;12.238;2023-03-07T03:12:56;10.40;95.10
38784;DHT22;24531;45.502;12.238;2023-03-07T03:15:22;10.40;95.10
38784;DHT22;24531;45.502;12.238;2023-03-07T03:17:47;10.40;95.10
38784;DHT22;24531;45.502;12.238;2023-03-07T03:20:13;10.40;95.10
38784;DHT22;24531;45.502;12.238;2023-03-07T03:22:41;10.40;95.40
38784;DHT22;24531;45.502;12.238;2023-03-07T03:25:09;10.40;95.10
38784;DHT22;24531;45.502;12.238;2023-03-07T03:27:36;10.40;95.10
38784;DHT22;24531;45.502;12.238;2023-03-07T03:30:03;10.40;95.10
38784;DHT22;24531;45.502;12.238;2023-03-07T03:32:30;10.50;95.10
38784;DHT22;24531;45.502;12.238;2023-03-07T03:34:57;10.70;95.10
38784;DHT22;24531;45.502;12.238;2023-03-07T03:37:23;10.50;95.10
38784;DHT22;24531;45.502;12.238;2023-03-07T03:39:49;10.50;95.00
38784;DHT22;24531;45.502;12.238;2023-03-07T03:42:16;10.60;95.10
38784;DHT22;24531;45.502;12.238;2023-03-07T03:44:42;10.40;95.00
38784;DHT22;24531;45.502;12.238;2023-03-07T03:47:07;10.50;95.10
38784;DHT22;24531;45.502;12.238;2023-03-07T03:49:33;10.40;95.10
38784;DHT22;24531;45.502;12.238;2023-03-07T03:52:01;10.40;95.10
38784;DHT22;24531;45.502;12.238;2023-03-07T03:54:26;10.40;95.10
38784;DHT22;24531;45.502;12.238;2023-03-07T03:56:53;10.40;95.10
38784;DHT22;24531;45.502;12.238;2023-03-07T03:59:19;10.40;95.10
38784;DHT22;24531;45.502;12.238;2023-03-07T04:01:46;10.40;95.20
38784;DHT22;24531;45.502;12.238;2023-03-07T04:04:12;10.40;95.10
38784;DHT22;24531;45.502;12.238;2023-03-07T04:06:38;10.40;95.20
38784;DHT22;24531;45.502;12.238;2023-03-07T04:09:03;10.40;95.20
38784;DHT22;24531;45.502;12.238;2023-03-07T04:11:29;10.80;95.20
38784;DHT22;24531;45.502;12.238;2023-03-07T04:13:55;10.30;95.20
38784;DHT22;24531;45.502;12.238;2023-03-07T04:16:21;10.40;95.20
38784;DHT22;24531;45.502;12.238;2023-03-07T04:18:47;10.40;95.20
38784;DHT22;24531;45.502;12.238;2023-03-07T04:21:14;10.80;95.30
38784;DHT22;24531;45.502;12.238;2023-03-07T04:23:40;10.70;97.10
38784;DHT22;24531;45.502;12.238;2023-03-07T04:26:07;11.00;95.50
38784;DHT22;24531;45.502;12.238;2023-03-07T04:28:35;10.40;96.50
38784;DHT22;24531;45.502;12.238;2023-03-07T04:31:07;10.30;95.20
38784;DHT22;24531;45.502;12.238;2023-03-07T04:33:33;10.30;94.80
38784;DHT22;24531;45.502;12.238;2023-03-07T04:35:58;10.20;94.60
38784;DHT22;24531;45.502;12.238;2023-03-07T04:38:24;10.10;95.00
38784;DHT22;24531;45.502;12.238;2023-03-07T04:40:50;10.00;95.10
38784;DHT22;24531;45.502;12.238;2023-03-07T04:43:15;9.90;95.20
38784;DHT22;24531;45.502;12.238;2023-03-07T04:45:41;10.00;95.30
38784;DHT22;24531;45.502;12.238;2023-03-07T04:48:07;10.10;97.70
38784;DHT22;24531;45.502;12.238;2023-03-07T04:50:32;10.00;95.20
38784;DHT22;24531;45.502;12.238;2023-03-07T04:52:58;10.00;95.20
38784;DHT22;24531;45.502;12.238;2023-03-07T04:55:23;10.10;95.00
38784;DHT22;24531;45.502;12.238;2023-03-07T04:57:49;11.40;95.70
38784;DHT22;24531;45.502;12.238;2023-03-07T05:00:17;9.80;95.10
38784;DHT22;24531;45.502;12.238;2023-03-07T05:02:42;9.50;95.30
38784;DHT22;24531;45.502;12.238;2023-03-07T05:05:09;9.40;95.60
38784;DHT22;24531;45.502;12.238;2023-03-07T05:07:35;10.20;95.70
38784;DHT22;24531;45.502;12.238;2023-03-07T05:10:00;9.20;95.60
38784;DHT22;24531;45.502;12.238;2023-03-07T05:12:26;9.20;95.80
38784;DHT22;24531;45.502;12.238;2023-03-07T05:14:52;9.20;95.90
38784;DHT22;24531;45.502;12.238;2023-03-07T05:17:18;10.20;96.30
38784;DHT22;24531;45.502;12.238;2023-03-07T05:19:44;9.30;95.90
38784;DHT22;24531;45.502;12.238;2023-03-07T05:22:09;9.30;95.90
38784;DHT22;24531;45.502;12.238;2023-03-07T05:24:35;9.40;95.90
38784;DHT22;24531;45.502;12.238;2023-03-07T05:27:00;9.40;96.00
38784;DHT22;24531;45.502;12.238;2023-03-07T05:29:26;9.40;96.00
38784;DHT22;24531;45.502;12.238;2023-03-07T05:31:52;9.50;96.00
38784;DHT22;24531;45.502;12.238;2023-03-07T05:34:19;9.80;95.80
38784;DHT22;24531;45.502;12.238;2023-03-07T05:36:44;9.40;95.90
38784;DHT22;24531;45.502;12.238;2023-03-07T05:39:10;9.30;96.00
38784;DHT22;24531;45.502;12.238;2023-03-07T05:41:36;9.70;96.20
38784;DHT22;24531;45.502;12.238;2023-03-07T05:44:01;9.40;96.20
38784;DHT22;24531;45.502;12.238;2023-03-07T05:46:27;9.40;96.00
38784;DHT22;24531;45.502;12.238;2023-03-07T05:48:53;9.50;95.90
38784;DHT22;24531;45.502;12.238;2023-03-07T05:51:20;9.40;95.80
38784;DHT22;24531;45.502;12.238;2023-03-07T05:53:46;9.80;96.00
38784;DHT22;24531;45.502;12.238;2023-03-07T05:56:11;9.40;95.90
38784;DHT22;24531;45.502;12.238;2023-03-07T05:58:37;9.80;96.00
38784;DHT22;24531;45.502;12.238;2023-03-07T06:01:03;9.80;96.20
38784;DHT22;24531;45.502;12.238;2023-03-07T06:03:29;9.40;95.90
38784;DHT22;24531;45.502;12.238;2023-03-07T06:05:55;9.40;95.80
38784;DHT22;24531;45.502;12.238;2023-03-07T06:08:21;9.30;96.00
38784;DHT22;24531;45.502;12.238;2023-03-07T06:10:53;9.40;96.00
38784;DHT22;24531;45.502;12.238;2023-03-07T06:13:21;11.00;96.50
38784;DHT22;24531;45.502;12.238;2023-03-07T06:15:48;9.50;95.90
38784;DHT22;24531;45.502;12.238;2023-03-07T06:18:15;9.50;95.60
38784;DHT22;24531;45.502;12.238;2023-03-07T06:20:40;9.90;95.90
38784;DHT22;24531;45.502;12.238;2023-03-07T06:23:06;9.30;96.00
38784;DHT22;24531;45.502;12.238;2023-03-07T06:25:32;9.40;96.30
38784;DHT22;24531;45.502;12.238;2023-03-07T06:27:57;9.50;96.40
38784;DHT22;24531;45.502;12.238;2023-03-07T06:30:26;9.70;96.30
38784;DHT22;24531;45.502;12.238;2023-03-07T06:32:52;9.80;96.20
38784;DHT22;24531;45.502;12.238;2023-03-07T06:35:18;9.90;96.20
38784;DHT22;24531;45.502;12.238;2023-03-07T06:37:43;10.10;96.10
38784;DHT22;24531;45.502;12.238;2023-03-07T06:40:09;10.20;96.00
38784;DHT22;24531;45.502;12.238;2023-03-07T06:42:36;10.40;96.20
38784;DHT22;24531;45.502;12.238;2023-03-07T06:45:01;10.50;95.90
38784;DHT22;24531;45.502;12.238;2023-03-07T06:47:30;10.60;95.80
38784;DHT22;24531;45.502;12.238;2023-03-07T06:49:56;10.70;96.60
38784;DHT22;24531;45.502;12.238;2023-03-07T06:52:22;10.70;95.90
38784;DHT22;24531;45.502;12.238;2023-03-07T06:54:48;11.00;96.10
38784;DHT22;24531;45.502;12.238;2023-03-07T06:57:13;11.00;95.80
38784;DHT22;24531;45.502;12.238;2023-03-07T06:59:39;11.40;95.90
38784;DHT22;24531;45.502;12.238;2023-03-07T07:02:05;11.30;95.80
38784;DHT22;24531;45.502;12.238;2023-03-07T07:04:31;11.40;95.70
38784;DHT22;24531;45.502;12.238;2023-03-07T07:06:57;11.50;95.90
38784;DHT22;24531;45.502;12.238;2023-03-07T07:09:23;11.60;95.80
38784;DHT22;24531;45.502;12.238;2023-03-07T07:11:48;11.80;95.90
38784;DHT22;24531;45.502;12.238;2023-03-07T07:14:14;11.90;95.80
38784;DHT22;24531;45.502;12.238;2023-03-07T07:16:40;12.00;95.80
38784;DHT22;24531;45.502;12.238;2023-03-07T07:19:05;12.20;96.00
38784;DHT22;24531;45.502;12.238;2023-03-07T07:21:31;12.40;95.70
38784;DHT22;24531;45.502;12.238;2023-03-07T07:23:57;12.50;95.80
38784;DHT22;24531;45.502;12.238;2023-03-07T07:26:23;12.70;95.80
38784;DHT22;24531;45.502;12.238;2023-03-07T07:28:50;12.90;95.80
38784;DHT22;24531;45.502;12.238;2023-03-07T07:31:15;13.20;95.70
38784;DHT22;24531;45.502;12.238;2023-03-07T07:33:41;13.40;95.50
38784;DHT22;24531;45.502;12.238;2023-03-07T07:36:08;13.70;95.30
38784;DHT22;24531;45.502;12.238;2023-03-07T07:38:37;13.90;95.20
38784;DHT22;24531;45.502;12.238;2023-03-07T07:41:03;16.80;95.90
38784;DHT22;24531;45.502;12.238;2023-03-07T07:43:29;14.40;95.00
38784;DHT22;24531;45.502;12.238;2023-03-07T07:45:54;14.70;94.90
38784;DHT22;24531;45.502;12.238;2023-03-07T07:48:20;15.10;94.80
38784;DHT22;24531;45.502;12.238;2023-03-07T07:50:46;15.40;94.50
38784;DHT22;24531;45.502;12.238;2023-03-07T07:53:12;15.60;94.40
38784;DHT22;24531;45.502;12.238;2023-03-07T07:55:38;15.80;94.20
38784;DHT22;24531;45.502;12.238;2023-03-07T07:58:03;15.90;93.70
38784;DHT22;24531;45.502;12.238;2023-03-07T08:00:29;15.80;93.70
38784;DHT22;24531;45.502;12.238;2023-03-07T08:02:55;15.70;93.60
38784;DHT22;24531;45.502;12.238;2023-03-07T08:05:22;15.80;93.60
38784;DHT22;24531;45.502;12.238;2023-03-07T08:07:48;15.90;94.70
38784;DHT22;24531;45.502;12.238;2023-03-07T08:10:15;16.40;93.60
38784;DHT22;24531;45.502;12.238;2023-03-07T08:12:49;16.70;93.50
38784;DHT22;24531;45.502;12.238;2023-03-07T08:15:16;17.10;93.30
38784;DHT22;24531;45.502;12.238;2023-03-07T08:17:42;17.20;92.90
38784;DHT22;24531;45.502;12.238;2023-03-07T08:20:09;17.30;92.90
38784;DHT22;24531;45.502;12.238;2023-03-07T08:22:36;17.60;92.70
38784;DHT22;24531;45.502;12.238;2023-03-07T08:25:03;17.60;92.30
38784;DHT22;24531;45.502;12.238;2023-03-07T08:27:29;17.50;92.30
38784;DHT22;24531;45.502;12.238;2023-03-07T08:29:55;17.40;92.10
38784;DHT22;24531;45.502;12.238;2023-03-07T08:32:21;17.20;92.10
38784;DHT22;24531;45.502;12.238;2023-03-07T08:34:46;17.00;92.10
38784;DHT22;24531;45.502;12.238;2023-03-07T08:37:12;17.20;92.20
38784;DHT22;24531;45.502;12.238;2023-03-07T08:39:37;17.20;92.10
38784;DHT22;24531;45.502;12.238;2023-03-07T08:42:03;17.40;91.90
38784;DHT22;24531;45.502;12.238;2023-03-07T08:44:29;17.30;91.70
38784;DHT22;24531;45.502;12.238;2023-03-07T08:46:54;17.20;91.60
38784;DHT22;24531;45.502;12.238;2023-03-07T08:49:20;17.00;91.70
38784;DHT22;24531;45.502;12.238;2023-03-07T08:51:46;17.20;92.10
38784;DHT22;24531;45.502;12.238;2023-03-07T08:54:12;17.30;91.90
38784;DHT22;24531;45.502;12.238;2023-03-07T08:56:38;17.40;91.90
38784;DHT22;24531;45.502;12.238;2023-03-07T08:59:03;17.30;91.70
38784;DHT22;24531;45.502;12.238;2023-03-07T09:01:29;17.20;91.50
38784;DHT22;24531;45.502;12.238;2023-03-07T09:03:55;17.10;91.50
38784;DHT22;24531;45.502;12.238;2023-03-07T09:06:21;16.80;91.40
38784;DHT22;24531;45.502;12.238;2023-03-07T09:08:47;16.70;91.50
38784;DHT22;24531;45.502;12.238;2023-03-07T09:11:13;16.70;91.80
38784;DHT22;24531;45.502;12.238;2023-03-07T09:13:39;16.90;92.00
38784;DHT22;24531;45.502;12.238;2023-03-07T09:16:06;17.10;91.90
38784;DHT22;24531;45.502;12.238;2023-03-07T09:18:32;17.10;91.70
38784;DHT22;24531;45.502;12.238;2023-03-07T09:21:02;17.10;91.70
38784;DHT22;24531;45.502;12.238;2023-03-07T09:23:28;20.10;92.50
38784;DHT22;24531;45.502;12.238;2023-03-07T09:25:54;17.10;91.70
38784;DHT22;24531;45.502;12.238;2023-03-07T09:28:22;16.90;91.50
38784;DHT22;24531;45.502;12.238;2023-03-07T09:30:48;16.80;91.60
38784;DHT22;24531;45.502;12.238;2023-03-07T09:33:13;16.60;91.80
38784;DHT22;24531;45.502;12.238;2023-03-07T09:35:39;16.90;92.20
38784;DHT22;24531;45.502;12.238;2023-03-07T09:38:05;17.50;92.40
38784;DHT22;24531;45.502;12.238;2023-03-07T09:40:30;18.50;92.10
38784;DHT22;24531;45.502;12.238;2023-03-07T09:43:18;19.40;91.50
38784;DHT22;24531;45.502;12.238;2023-03-07T09:45:59;20.20;90.70
38784;DHT22;24531;45.502;12.238;2023-03-07T09:51:20;21.50;89.50
38784;DHT22;24531;45.502;12.238;2023-03-07T09:53:55;22.10;87.90
38784;DHT22;24531;45.502;12.238;2023-03-07T09:59:19;22.50;85.90
38784;DHT22;24531;45.502;12.238;2023-03-07T10:01:55;22.90;85.70
38784;DHT22;24531;45.502;12.238;2023-03-07T10:04:29;23.10;84.30
38784;DHT22;24531;45.502;12.238;2023-03-07T10:06:57;23.30;83.70
38784;DHT22;24531;45.502;12.238;2023-03-07T10:09:24;23.40;83.10
38784;DHT22;24531;45.502;12.238;2023-03-07T10:17:00;24.20;80.80
38784;DHT22;24531;45.502;12.238;2023-03-07T10:19:49;24.30;79.90
38784;DHT22;24531;45.502;12.238;2023-03-07T10:25:39;24.30;77.30
38784;DHT22;24531;45.502;12.238;2023-03-07T10:28:29;24.30;76.90
38784;DHT22;24531;45.502;12.238;2023-03-07T10:31:09;24.50;76.50
38784;DHT22;24531;45.502;12.238;2023-03-07T10:33:39;24.40;75.00
38784;DHT22;24531;45.502;12.238;2023-03-07T10:36:14;24.00;74.40
38784;DHT22;24531;45.502;12.238;2023-03-07T10:38:46;23.20;73.60
38784;DHT22;24531;45.502;12.238;2023-03-07T10:41:15;22.50;75.20
38784;DHT22;24531;45.502;12.238;2023-03-07T10:43:42;22.10;75.80
38784;DHT22;24531;45.502;12.238;2023-03-07T10:46:20;21.70;76.00
38784;DHT22;24531;45.502;12.238;2023-03-07T10:49:13;21.10;75.20
38784;DHT22;24531;45.502;12.238;2023-03-07T10:52:01;20.50;76.30
38784;DHT22;24531;45.502;12.238;2023-03-07T10:54:33;20.20;77.30
38784;DHT22;24531;45.502;12.238;2023-03-07T10:57:13;20.00;77.90
38784;DHT22;24531;45.502;12.238;2023-03-07T10:59:45;19.70;78.60
38784;DHT22;24531;45.502;12.238;2023-03-07T11:02:40;19.50;78.70
38784;DHT22;24531;45.502;12.238;2023-03-07T11:05:32;19.10;79.30
38784;DHT22;24531;45.502;12.238;2023-03-07T11:07:59;18.70;79.90
38784;DHT22;24531;45.502;12.238;2023-03-07T11:10:38;18.30;80.40
38784;DHT22;24531;45.502;12.238;2023-03-07T11:13:14;18.10;81.30
38784;DHT22;24531;45.502;12.238;2023-03-07T11:15:40;17.80;82.20
38784;DHT22;24531;45.502;12.238;2023-03-07T11:18:31;17.70;82.70
38784;DHT22;24531;45.502;12.238;2023-03-07T11:21:01;17.60;83.50
38784;DHT22;24531;45.502;12.238;2023-03-07T11:23:28;17.60;83.60
38784;DHT22;24531;45.502;12.238;2023-03-07T11:26:21;17.70;84.00
38784;DHT22;24531;45.502;12.238;2023-03-07T11:28:47;17.60;83.50
38784;DHT22;24531;45.502;12.238;2023-03-07T11:34:40;17.50;84.20
38784;DHT22;24531;45.502;12.238;2023-03-07T11:37:28;17.50;84.30
38784;DHT22;24531;45.502;12.238;2023-03-07T11:40:19;17.60;84.60
38784;DHT22;24531;45.502;12.238;2023-03-07T11:50:31;17.70;84.30
38784;DHT22;24531;45.502;12.238;2023-03-07T11:58:53;17.40;84.10
38784;DHT22;24531;45.502;12.238;2023-03-07T12:01:57;17.40;84.10
38784;DHT22;24531;45.502;12.238;2023-03-07T12:04:42;17.30;84.50
38784;DHT22;24531;45.502;12.238;2023-03-07T12:13:14;17.20;85.00
38784;DHT22;24531;45.502;12.238;2023-03-07T12:18:20;17.30;85.00
38784;DHT22;24531;45.502;12.238;2023-03-07T12:23:50;17.30;85.30
38784;DHT22;24531;45.502;12.238;2023-03-07T12:29:41;17.30;85.20
38784;DHT22;24531;45.502;12.238;2023-03-07T12:32:13;17.30;85.00
38784;DHT22;24531;45.502;12.238;2023-03-07T12:34:44;17.30;84.80
38784;DHT22;24531;45.502;12.238;2023-03-07T12:37:15;17.20;85.20
38784;DHT22;24531;45.502;12.238;2023-03-07T12:39:51;17.30;85.20
38784;DHT22;24531;45.502;12.238;2023-03-07T12:42:37;17.30;85.00
38784;DHT22;24531;45.502;12.238;2023-03-07T12:45:09;17.20;85.00
38784;DHT22;24531;45.502;12.238;2023-03-07T12:48:03;17.20;84.80
38784;DHT22;24531;45.502;12.238;2023-03-07T12:53:32;17.00;85.10
38784;DHT22;24531;45.502;12.238;2023-03-07T12:56:08;17.00;84.80
38784;DHT22;24531;45.502;12.238;2023-03-07T13:01:38;16.90;85.70
38784;DHT22;24531;45.502;12.238;2023-03-07T13:04:16;17.00;84.80
38784;DHT22;24531;45.502;12.238;2023-03-07T13:06:43;17.10;84.50
38784;DHT22;24531;45.502;12.238;2023-03-07T13:12:17;17.00;84.00
38784;DHT22;24531;45.502;12.238;2023-03-07T13:28:15;16.90;83.40
38784;DHT22;24531;45.502;12.238;2023-03-07T13:33:42;16.90;83.20
38784;DHT22;24531;45.502;12.238;2023-03-07T13:36:45;16.90;82.80
38784;DHT22;24531;45.502;12.238;2023-03-07T13:39:57;16.80;82.70
38784;DHT22;24531;45.502;12.238;2023-03-07T13:42:46;16.70;82.40
38784;DHT22;24531;45.502;12.238;2023-03-07T13:48:02;16.60;81.50
38784;DHT22;24531;45.502;12.238;2023-03-07T13:53:20;16.50;82.00
38784;DHT22;24531;45.502;12.238;2023-03-07T13:55:50;16.50;82.30
38784;DHT22;24531;45.502;12.238;2023-03-07T13:58:28;16.50;81.90
38784;DHT22;24531;45.502;12.238;2023-03-07T14:01:13;16.50;81.50
38784;DHT22;24531;45.502;12.238;2023-03-07T14:03:56;16.30;81.10
38784;DHT22;24531;45.502;12.238;2023-03-07T14:06:33;16.30;81.30
38784;DHT22;24531;45.502;12.238;2023-03-07T14:09:04;16.20;81.60
38784;DHT22;24531;45.502;12.238;2023-03-07T14:19:48;16.10;82.40
38784;DHT22;24531;45.502;12.238;2023-03-07T14:22:33;16.00;83.00
38784;DHT22;24531;45.502;12.238;2023-03-07T14:25:19;16.00;83.20
38784;DHT22;24531;45.502;12.238;2023-03-07T14:28:02;16.00;83.60
38784;DHT22;24531;45.502;12.238;2023-03-07T14:30:32;15.90;83.90
38784;DHT22;24531;45.502;12.238;2023-03-07T14:32:59;15.80;84.00
38784;DHT22;24531;45.502;12.238;2023-03-07T14:35:40;15.80;84.10
38784;DHT22;24531;45.502;12.238;2023-03-07T14:38:15;15.80;84.30
38784;DHT22;24531;45.502;12.238;2023-03-07T14:40:57;15.80;84.30
38784;DHT22;24531;45.502;12.238;2023-03-07T14:49:34;15.90;84.30
38784;DHT22;24531;45.502;12.238;2023-03-07T14:52:02;15.90;84.40
38784;DHT22;24531;45.502;12.238;2023-03-07T14:54:31;15.80;84.40
38784;DHT22;24531;45.502;12.238;2023-03-07T14:56:58;15.80;84.50
38784;DHT22;24531;45.502;12.238;2023-03-07T14:59:24;15.80;85.40
38784;DHT22;24531;45.502;12.238;2023-03-07T15:01:50;15.80;84.50
38784;DHT22;24531;45.502;12.238;2023-03-07T15:04:30;15.90;84.50
38784;DHT22;24531;45.502;12.238;2023-03-07T15:07:01;15.80;84.60
38784;DHT22;24531;45.502;12.238;2023-03-07T15:09:29;15.80;84.60
38784;DHT22;24531;45.502;12.238;2023-03-07T15:14:43;15.80;84.50
38784;DHT22;24531;45.502;12.238;2023-03-07T15:17:17;15.70;84.70
38784;DHT22;24531;45.502;12.238;2023-03-07T15:19:49;15.70;84.90
38784;DHT22;24531;45.502;12.238;2023-03-07T15:22:22;15.70;85.10
38784;DHT22;24531;45.502;12.238;2023-03-07T15:24:49;15.70;85.20
38784;DHT22;24531;45.502;12.238;2023-03-07T15:27:27;15.70;85.20
38784;DHT22;24531;45.502;12.238;2023-03-07T15:29:53;15.70;85.00
38784;DHT22;24531;45.502;12.238;2023-03-07T15:32:35;15.70;85.00
38784;DHT22;24531;45.502;12.238;2023-03-07T15:37:35;15.70;85.20
38784;DHT22;24531;45.502;12.238;2023-03-07T15:40:28;15.60;85.20
38784;DHT22;24531;45.502;12.238;2023-03-07T15:47:52;15.60;85.90
38784;DHT22;24531;45.502;12.238;2023-03-07T15:50:25;15.60;85.90
38784;DHT22;24531;45.502;12.238;2023-03-07T15:52:53;15.50;86.10
38784;DHT22;24531;45.502;12.238;2023-03-07T15:55:23;15.50;86.20
38784;DHT22;24531;45.502;12.238;2023-03-07T16:00:20;15.30;86.60
38784;DHT22;24531;45.502;12.238;2023-03-07T16:02:48;15.30;86.90
38784;DHT22;24531;45.502;12.238;2023-03-07T16:07:55;15.20;87.30
38784;DHT22;24531;45.502;12.238;2023-03-07T16:10:25;15.20;87.50
38784;DHT22;24531;45.502;12.238;2023-03-07T16:12:51;15.20;87.60
38784;DHT22;24531;45.502;12.238;2023-03-07T16:15:19;15.20;87.90
38784;DHT22;24531;45.502;12.238;2023-03-07T16:17:46;15.20;88.00
38784;DHT22;24531;45.502;12.238;2023-03-07T16:20:20;15.20;88.20
38784;DHT22;24531;45.502;12.238;2023-03-07T16:22:46;15.10;88.40
38784;DHT22;24531;45.502;12.238;2023-03-07T16:25:12;15.00;88.60
38784;DHT22;24531;45.502;12.238;2023-03-07T16:27:42;15.00;88.90
38784;DHT22;24531;45.502;12.238;2023-03-07T16:30:17;14.90;89.20
38784;DHT22;24531;45.502;12.238;2023-03-07T16:32:43;14.90;89.60
38784;DHT22;24531;45.502;12.238;2023-03-07T16:35:26;15.00;89.80
38784;DHT22;24531;45.502;12.238;2023-03-07T16:37:53;14.90;90.00
38784;DHT22;24531;45.502;12.238;2023-03-07T16:40:19;15.00;90.00
38784;DHT22;24531;45.502;12.238;2023-03-07T16:42:46;15.10;90.10
38784;DHT22;24531;45.502;12.238;2023-03-07T16:45:33;15.00;90.20
38784;DHT22;24531;45.502;12.238;2023-03-07T16:48:00;14.90;90.30
38784;DHT22;24531;45.502;12.238;2023-03-07T16:50:30;14.90;90.30
38784;DHT22;24531;45.502;12.238;2023-03-07T16:52:56;14.90;90.70
38784;DHT22;24531;45.502;12.238;2023-03-07T16:55:23;14.90;90.40
38784;DHT22;24531;45.502;12.238;2023-03-07T16:57:54;14.90;90.50
38784;DHT22;24531;45.502;12.238;2023-03-07T17:00:23;14.90;90.70
38784;DHT22;24531;45.502;12.238;2023-03-07T17:02:51;14.90;90.50
38784;DHT22;24531;45.502;12.238;2023-03-07T17:05:20;14.90;90.60
38784;DHT22;24531;45.502;12.238;2023-03-07T17:07:46;14.90;90.60
38784;DHT22;24531;45.502;12.238;2023-03-07T17:10:12;14.90;90.70
38784;DHT22;24531;45.502;12.238;2023-03-07T17:12:39;14.80;90.80
38784;DHT22;24531;45.502;12.238;2023-03-07T17:15:06;14.80;90.80
38784;DHT22;24531;45.502;12.238;2023-03-07T17:17:34;14.80;90.90
38784;DHT22;24531;45.502;12.238;2023-03-07T17:20:00;14.70;90.90
38784;DHT22;24531;45.502;12.238;2023-03-07T17:22:25;14.80;91.00
38784;DHT22;24531;45.502;12.238;2023-03-07T17:24:51;14.70;91.10